Time;durP1;ratioP1;P1;durP2;ratioP2;P2;SDS_P1;SDS_P2;PMS_P1;PMS_P2;Temp;Humidity;BMP_temperature;BMP_pressure;BME280_temperature;BME280_humidity;BME280_pressure;Samples;Min_cycle;Max_cycle;Signal;HPM_P1;HPM_P2
2021/08/11 00:00:23;;;;;;;;;;;24.60;53.00;;;;;;492663;241;1123;-69
2021/08/11 00:02:24;;;;;;;;;;;24.60;52.80;;;;;;492626;241;1210;-69
2021/08/11 00:04:25;;;;;;;;;;;24.70;52.90;;;;;;492631;241;2200;-69
2021/08/11 00:06:26;;;;;;;;;;;24.50;53.00;;;;;;492663;241;1262;-69
2021/08/11 00:08:28;;;;;;;;;;;24.40;53.30;;;;;;492711;241;1101;-69
2021/08/11 00:10:29;;;;;;;;;;;24.70;52.80;;;;;;492573;241;1087;-70
2021/08/11 00:12:30;;;;;;;;;;;24.50;53.00;;;;;;492587;241;1201;-69
2021/08/11 00:14:32;;;;;;;;;;;24.30;53.30;;;;;;492670;241;965;-69
2021/08/11 00:16:33;;;;;;;;;;;24.50;53.00;;;;;;492563;241;1126;-69
2021/08/11 00:18:34;;;;;;;;;;;23.80;54.70;;;;;;492614;241;1169;-69
2021/08/11 00:20:36;;;;;;;;;;;24.00;54.10;;;;;;492671;241;989;-69
2021/08/11 00:22:37;;;;;;;;;;;24.20;53.70;;;;;;492665;241;2187;-69
2021/08/11 00:24:38;;;;;;;;;;;23.80;54.70;;;;;;492715;241;1056;-69
2021/08/11 00:26:40;;;;;;;;;;;24.20;53.90;;;;;;492589;241;1018;-69
2021/08/11 00:28:41;;;;;;;;;;;24.10;54.10;;;;;;492702;241;959;-69
2021/08/11 00:30:42;;;;;;;;;;;23.90;54.40;;;;;;492656;241;1137;-69
2021/08/11 00:32:44;;;;;;;;;;;24.20;54.00;;;;;;492656;241;1019;-69
2021/08/11 00:34:45;;;;;;;;;;;23.90;54.20;;;;;;492708;241;1185;-69
2021/08/11 00:36:46;;;;;;;;;;;24.10;54.20;;;;;;492544;241;1047;-69
2021/08/11 00:38:48;;;;;;;;;;;23.90;54.50;;;;;;492634;241;987;-69
2021/08/11 00:40:49;;;;;;;;;;;24.00;54.40;;;;;;492563;241;1212;-69
2021/08/11 00:42:50;;;;;;;;;;;24.10;54.20;;;;;;492621;241;2152;-69
2021/08/11 00:44:52;;;;;;;;;;;24.00;54.20;;;;;;492652;241;996;-69
2021/08/11 00:46:54;;;;;;;;;;;24.30;53.90;;;;;;492537;241;1258;-69
2021/08/11 00:48:54;;;;;;;;;;;23.70;54.70;;;;;;492694;241;1250;-69
2021/08/11 00:50:58;;;;;;;;;;;23.90;54.50;;;;;;492600;241;1252;-69
2021/08/11 00:52:59;;;;;;;;;;;24.20;53.90;;;;;;492656;241;1045;-69
2021/08/11 00:55:01;;;;;;;;;;;24.00;54.50;;;;;;492683;241;1005;-69
2021/08/11 00:57:04;;;;;;;;;;;24.00;54.30;;;;;;492557;241;1090;-69
2021/08/11 00:59:03;;;;;;;;;;;24.00;54.20;;;;;;492545;242;1512;-69
2021/08/11 01:01:05;;;;;;;;;;;24.20;53.90;;;;;;492578;238;1225;-69
2021/08/11 01:03:06;;;;;;;;;;;24.00;54.40;;;;;;492724;241;2192;-69
2021/08/11 01:05:07;;;;;;;;;;;24.00;54.00;;;;;;492569;241;1167;-69
2021/08/11 01:07:09;;;;;;;;;;;24.30;53.70;;;;;;492519;241;1115;-69
2021/08/11 01:09:10;;;;;;;;;;;24.00;54.00;;;;;;492665;241;1127;-69
2021/08/11 01:11:11;;;;;;;;;;;24.00;54.30;;;;;;492561;237;1371;-69
2021/08/11 01:13:13;;;;;;;;;;;24.00;54.40;;;;;;492601;241;1080;-69
2021/08/11 01:15:14;;;;;;;;;;;23.90;54.70;;;;;;492587;241;1069;-70
2021/08/11 01:17:15;;;;;;;;;;;24.10;54.00;;;;;;492444;241;1176;-69
2021/08/11 01:19:20;;;;;;;;;;;24.30;53.70;;;;;;492608;241;1188;-69
2021/08/11 01:21:18;;;;;;;;;;;23.90;54.70;;;;;;492291;242;1379;-69
2021/08/11 01:23:20;;;;;;;;;;;24.00;54.10;;;;;;492643;241;2183;-69
2021/08/11 01:25:21;;;;;;;;;;;24.10;54.40;;;;;;492636;241;1160;-69
2021/08/11 01:27:22;;;;;;;;;;;23.90;54.60;;;;;;492582;241;1189;-69
2021/08/11 01:29:23;;;;;;;;;;;24.00;54.50;;;;;;492629;241;980;-69
2021/08/11 01:31:25;;;;;;;;;;;24.20;54.10;;;;;;492512;241;1234;-69
2021/08/11 01:33:26;;;;;;;;;;;24.00;54.50;;;;;;492636;241;941;-69
2021/08/11 01:35:27;;;;;;;;;;;24.00;54.40;;;;;;492629;241;1188;-69
2021/08/11 01:37:29;;;;;;;;;;;23.90;54.70;;;;;;492608;241;1138;-69
2021/08/11 01:39:31;;;;;;;;;;;24.10;53.90;;;;;;492618;241;988;-70
2021/08/11 01:41:32;;;;;;;;;;;24.00;54.10;;;;;;492465;238;1398;-69
2021/08/11 01:43:33;;;;;;;;;;;24.20;53.90;;;;;;492607;241;2189;-69
2021/08/11 01:45:36;;;;;;;;;;;24.30;53.60;;;;;;492649;241;973;-69
2021/08/11 01:47:36;;;;;;;;;;;24.10;54.00;;;;;;492561;241;1438;-70
2021/08/11 01:49:37;;;;;;;;;;;23.80;54.40;;;;;;492695;241;1165;-70
2021/08/11 01:51:38;;;;;;;;;;;23.70;55.00;;;;;;492618;241;1192;-69
2021/08/11 01:53:40;;;;;;;;;;;24.00;54.30;;;;;;492647;241;942;-69
2021/08/11 01:55:41;;;;;;;;;;;23.70;55.00;;;;;;492635;241;984;-69
2021/08/11 01:57:42;;;;;;;;;;;24.00;54.10;;;;;;492599;241;1049;-69
2021/08/11 01:59:44;;;;;;;;;;;24.20;53.90;;;;;;492648;241;1130;-70
2021/08/11 02:01:45;;;;;;;;;;;24.00;54.40;;;;;;492562;241;1236;-69
2021/08/11 02:03:46;;;;;;;;;;;23.80;54.40;;;;;;492651;241;2140;-69
2021/08/11 02:05:48;;;;;;;;;;;24.10;54.20;;;;;;492597;241;1151;-69
2021/08/11 02:07:49;;;;;;;;;;;24.00;54.20;;;;;;492573;241;1130;-69
2021/08/11 02:09:50;;;;;;;;;;;23.70;54.60;;;;;;492615;241;966;-69
2021/08/11 02:11:52;;;;;;;;;;;24.10;54.10;;;;;;492508;241;1178;-69
2021/08/11 02:13:53;;;;;;;;;;;23.90;54.20;;;;;;492609;241;1263;-70
2021/08/11 02:15:54;;;;;;;;;;;24.10;54.10;;;;;;492684;241;923;-69
2021/08/11 02:17:56;;;;;;;;;;;24.00;54.30;;;;;;492591;241;1086;-69
2021/08/11 02:19:57;;;;;;;;;;;24.00;54.40;;;;;;492634;241;1108;-69
2021/08/11 02:21:58;;;;;;;;;;;24.10;54.10;;;;;;492599;241;1205;-69
2021/08/11 02:24:00;;;;;;;;;;;24.10;53.80;;;;;;492691;241;2140;-69
2021/08/11 02:26:01;;;;;;;;;;;23.90;54.80;;;;;;492592;241;1169;-69
2021/08/11 02:28:02;;;;;;;;;;;24.10;53.90;;;;;;492594;241;1210;-69
2021/08/11 02:30:03;;;;;;;;;;;24.30;53.80;;;;;;492632;241;1412;-69
2021/08/11 02:32:05;;;;;;;;;;;24.30;53.80;;;;;;492400;241;1224;-69
2021/08/11 02:34:06;;;;;;;;;;;24.20;53.60;;;;;;492657;241;1054;-69
2021/08/11 02:36:07;;;;;;;;;;;24.10;54.00;;;;;;492550;241;1348;-69
2021/08/11 02:38:09;;;;;;;;;;;24.20;53.70;;;;;;492586;241;1371;-69
2021/08/11 02:40:11;;;;;;;;;;;24.20;53.60;;;;;;492698;241;945;-69
2021/08/11 02:42:12;;;;;;;;;;;24.30;53.40;;;;;;492533;241;1232;-69
2021/08/11 02:44:14;;;;;;;;;;;24.30;53.50;;;;;;492656;241;2185;-69
2021/08/11 02:46:15;;;;;;;;;;;24.30;53.40;;;;;;492573;241;1167;-69
2021/08/11 02:48:16;;;;;;;;;;;24.40;53.10;;;;;;492641;241;1309;-69
2021/08/11 02:50:18;;;;;;;;;;;24.20;53.80;;;;;;492657;241;1172;-69
2021/08/11 02:52:19;;;;;;;;;;;24.00;53.90;;;;;;492483;241;1183;-69
2021/08/11 02:54:20;;;;;;;;;;;24.00;54.10;;;;;;492694;241;916;-70
2021/08/11 02:56:22;;;;;;;;;;;24.10;54.10;;;;;;492536;241;1150;-70
2021/08/11 02:58:23;;;;;;;;;;;24.10;53.80;;;;;;492609;241;1171;-69
2021/08/11 03:00:24;;;;;;;;;;;24.30;53.30;;;;;;492627;241;1094;-69
2021/08/11 03:02:26;;;;;;;;;;;24.60;52.90;;;;;;492528;241;1124;-69
2021/08/11 03:04:27;;;;;;;;;;;24.50;53.00;;;;;;492654;241;2212;-69
2021/08/11 03:06:28;;;;;;;;;;;24.60;52.80;;;;;;492590;241;1176;-69
2021/08/11 03:08:29;;;;;;;;;;;24.60;52.80;;;;;;492580;241;1103;-69
2021/08/11 03:10:31;;;;;;;;;;;24.50;53.20;;;;;;492699;241;1226;-69
2021/08/11 03:12:32;;;;;;;;;;;24.50;53.00;;;;;;492576;241;1143;-69
2021/08/11 03:14:33;;;;;;;;;;;24.60;52.80;;;;;;492713;241;995;-69
2021/08/11 03:16:35;;;;;;;;;;;24.50;53.00;;;;;;492608;241;1173;-69
2021/08/11 03:18:36;;;;;;;;;;;24.50;52.80;;;;;;492650;241;1219;-69
2021/08/11 03:20:37;;;;;;;;;;;24.60;52.80;;;;;;492555;241;1168;-69
2021/08/11 03:22:39;;;;;;;;;;;24.60;52.80;;;;;;492555;241;1095;-69
2021/08/11 03:24:40;;;;;;;;;;;24.50;53.00;;;;;;492669;241;2174;-69
2021/08/11 03:26:41;;;;;;;;;;;24.50;52.90;;;;;;492584;238;1204;-69
2021/08/11 03:28:43;;;;;;;;;;;24.50;53.00;;;;;;492636;241;1126;-69
2021/08/11 03:30:44;;;;;;;;;;;24.50;53.00;;;;;;492654;241;958;-69
2021/08/11 03:32:45;;;;;;;;;;;24.50;53.00;;;;;;492521;241;1086;-69
2021/08/11 03:34:47;;;;;;;;;;;24.60;53.00;;;;;;492671;241;1083;-69
2021/08/11 03:36:48;;;;;;;;;;;24.40;53.20;;;;;;492563;241;1223;-69
2021/08/11 03:38:49;;;;;;;;;;;24.50;53.20;;;;;;492644;241;1176;-69
2021/08/11 03:40:51;;;;;;;;;;;24.50;53.00;;;;;;492644;241;1076;-69
2021/08/11 03:42:52;;;;;;;;;;;24.50;53.30;;;;;;492627;241;1229;-69
2021/08/11 03:44:53;;;;;;;;;;;24.10;54.00;;;;;;492608;241;2195;-69
2021/08/11 03:46:55;;;;;;;;;;;24.40;53.60;;;;;;492623;241;1146;-69
2021/08/11 03:48:56;;;;;;;;;;;24.20;53.90;;;;;;492632;241;941;-69
2021/08/11 03:50:57;;;;;;;;;;;24.00;54.30;;;;;;492652;241;1170;-69
2021/08/11 03:52:59;;;;;;;;;;;24.10;54.20;;;;;;492575;241;1142;-69
2021/08/11 03:55:00;;;;;;;;;;;24.10;53.80;;;;;;492670;241;1038;-70
2021/08/11 03:57:01;;;;;;;;;;;24.30;53.60;;;;;;492550;241;1270;-69
2021/08/11 03:59:03;;;;;;;;;;;24.10;54.00;;;;;;492624;241;1088;-69
2021/08/11 04:01:05;;;;;;;;;;;23.90;54.20;;;;;;492644;241;1178;-69
2021/08/11 04:03:05;;;;;;;;;;;24.20;53.70;;;;;;492532;242;1276;-69
2021/08/11 04:05:06;;;;;;;;;;;24.10;54.00;;;;;;492652;241;2191;-69
2021/08/11 04:07:08;;;;;;;;;;;24.00;54.10;;;;;;492493;241;1194;-69
2021/08/11 04:09:09;;;;;;;;;;;24.00;54.10;;;;;;492622;241;1190;-69
2021/08/11 04:11:10;;;;;;;;;;;24.10;54.40;;;;;;492655;241;1109;-69
2021/08/11 04:13:14;;;;;;;;;;;23.90;54.20;;;;;;492603;241;1225;-69
2021/08/11 04:15:13;;;;;;;;;;;24.30;53.70;;;;;;492495;242;1478;-68
2021/08/11 04:17:15;;;;;;;;;;;24.00;54.30;;;;;;492560;241;1237;-69
2021/08/11 04:19:16;;;;;;;;;;;24.00;54.30;;;;;;492562;241;1093;-69
2021/08/11 04:21:17;;;;;;;;;;;23.90;54.20;;;;;;492492;241;1172;-69
2021/08/11 04:23:19;;;;;;;;;;;24.30;53.80;;;;;;492549;241;1127;-67
2021/08/11 04:25:20;;;;;;;;;;;24.00;54.00;;;;;;492542;241;2186;-68
2021/08/11 04:27:21;;;;;;;;;;;23.90;54.30;;;;;;492596;241;1117;-65
2021/08/11 04:29:23;;;;;;;;;;;24.30;53.90;;;;;;492524;241;1068;-68
2021/08/11 04:31:24;;;;;;;;;;;24.10;53.90;;;;;;492533;241;1045;-69
2021/08/11 04:33:25;;;;;;;;;;;24.00;53.90;;;;;;492476;241;1070;-69
2021/08/11 04:35:27;;;;;;;;;;;24.30;53.90;;;;;;492566;241;957;-68
2021/08/11 04:37:28;;;;;;;;;;;24.30;53.80;;;;;;492511;241;1221;-69
2021/08/11 04:39:31;;;;;;;;;;;23.90;54.30;;;;;;492451;241;1113;-68
2021/08/11 04:41:32;;;;;;;;;;;24.10;54.10;;;;;;492474;241;1231;-69
2021/08/11 04:43:33;;;;;;;;;;;24.00;54.40;;;;;;492503;241;1117;-69
2021/08/11 04:45:35;;;;;;;;;;;24.00;53.90;;;;;;492401;241;2191;-69
2021/08/11 04:47:36;;;;;;;;;;;24.30;53.70;;;;;;492436;241;1162;-69
2021/08/11 04:49:37;;;;;;;;;;;24.00;54.40;;;;;;492440;241;947;-69
2021/08/11 04:51:38;;;;;;;;;;;23.90;54.40;;;;;;492257;241;1675;-69
2021/08/11 04:53:40;;;;;;;;;;;24.20;53.80;;;;;;492239;241;1227;-69
2021/08/11 04:55:41;;;;;;;;;;;23.80;54.60;;;;;;492311;241;1364;-69
2021/08/11 04:57:42;;;;;;;;;;;23.90;54.20;;;;;;492271;241;1257;-69
2021/08/11 04:59:44;;;;;;;;;;;24.10;54.10;;;;;;492306;241;1122;-69
2021/08/11 05:01:45;;;;;;;;;;;24.10;54.40;;;;;;492315;241;1171;-69
2021/08/11 05:03:46;;;;;;;;;;;23.90;54.50;;;;;;492457;241;957;-69
2021/08/11 05:05:48;;;;;;;;;;;24.10;54.10;;;;;;492419;241;2184;-69
2021/08/11 05:07:49;;;;;;;;;;;24.10;54.50;;;;;;492426;241;1263;-69
2021/08/11 05:09:50;;;;;;;;;;;23.90;54.10;;;;;;492428;241;976;-69
2021/08/11 05:11:52;;;;;;;;;;;24.20;53.60;;;;;;492294;241;1274;-69
2021/08/11 05:13:53;;;;;;;;;;;24.20;53.90;;;;;;492390;241;1207;-69
2021/08/11 05:15:54;;;;;;;;;;;24.20;53.70;;;;;;492375;241;1184;-69
2021/08/11 05:17:56;;;;;;;;;;;24.20;53.50;;;;;;492359;241;1180;-68
2021/08/11 05:19:57;;;;;;;;;;;24.40;53.50;;;;;;492291;241;1041;-68
2021/08/11 05:21:58;;;;;;;;;;;24.00;53.80;;;;;;492335;241;1281;-69
2021/08/11 05:24:00;;;;;;;;;;;24.10;54.00;;;;;;492245;241;1172;-69
2021/08/11 05:26:01;;;;;;;;;;;24.20;53.80;;;;;;492250;241;2171;-69
2021/08/11 05:28:02;;;;;;;;;;;24.20;54.00;;;;;;492402;241;1126;-69
2021/08/11 05:30:04;;;;;;;;;;;24.00;53.90;;;;;;492322;241;1155;-69
2021/08/11 05:32:05;;;;;;;;;;;24.10;54.20;;;;;;492228;241;1069;-69
2021/08/11 05:34:06;;;;;;;;;;;23.90;54.30;;;;;;492271;241;1088;-69
2021/08/11 05:36:08;;;;;;;;;;;24.00;54.30;;;;;;492220;241;1232;-69
2021/08/11 05:38:09;;;;;;;;;;;24.00;54.40;;;;;;492212;241;1210;-69
2021/08/11 05:40:11;;;;;;;;;;;23.80;54.60;;;;;;492371;241;1001;-69
2021/08/11 05:42:11;;;;;;;;;;;24.20;54.10;;;;;;492266;241;1455;-70
2021/08/11 05:44:13;;;;;;;;;;;24.00;54.30;;;;;;492274;241;994;-69
2021/08/11 05:46:14;;;;;;;;;;;23.80;54.60;;;;;;492207;241;1117;-69
2021/08/11 05:48:15;;;;;;;;;;;24.00;54.20;;;;;;492128;241;1294;-69
2021/08/11 05:50:17;;;;;;;;;;;24.10;54.10;;;;;;492248;241;1023;-69
2021/08/11 05:52:18;;;;;;;;;;;24.10;54.00;;;;;;492122;241;1139;-69
2021/08/11 05:54:20;;;;;;;;;;;24.10;54.30;;;;;;492196;241;1063;-69
2021/08/11 05:56:21;;;;;;;;;;;24.20;53.70;;;;;;492106;241;1273;-69
2021/08/11 05:58:22;;;;;;;;;;;24.30;53.90;;;;;;492300;241;1138;-69
2021/08/11 06:00:23;;;;;;;;;;;24.00;54.10;;;;;;492049;241;971;-69
2021/08/11 06:02:27;;;;;;;;;;;24.10;54.00;;;;;;491957;241;1395;-69
2021/08/11 06:04:28;;;;;;;;;;;24.00;54.40;;;;;;491859;242;2187;-69
2021/08/11 06:06:27;;;;;;;;;;;24.20;54.00;;;;;;491969;237;1338;-70
2021/08/11 06:08:29;;;;;;;;;;;24.40;53.50;;;;;;492100;241;1069;-69
2021/08/11 06:10:30;;;;;;;;;;;24.30;53.70;;;;;;491908;241;1054;-70
2021/08/11 06:12:31;;;;;;;;;;;24.20;53.80;;;;;;491971;241;1196;-69
2021/08/11 06:14:33;;;;;;;;;;;24.40;53.60;;;;;;492147;241;1008;-69
2021/08/11 06:16:36;;;;;;;;;;;24.00;54.10;;;;;;492068;241;1221;-69
2021/08/11 06:18:35;;;;;;;;;;;24.20;53.80;;;;;;491926;242;1401;-69
2021/08/11 06:20:37;;;;;;;;;;;24.20;53.90;;;;;;492083;241;1248;-69
2021/08/11 06:22:38;;;;;;;;;;;24.30;54.00;;;;;;492246;241;1193;-69
2021/08/11 06:24:39;;;;;;;;;;;24.30;53.60;;;;;;492016;241;2149;-69
2021/08/11 06:26:41;;;;;;;;;;;24.30;53.50;;;;;;492091;241;1217;-69
2021/08/11 06:28:42;;;;;;;;;;;24.30;53.80;;;;;;492037;241;1155;-69
2021/08/11 06:30:44;;;;;;;;;;;24.30;54.00;;;;;;492066;241;1267;-69
2021/08/11 06:32:45;;;;;;;;;;;24.30;53.80;;;;;;492136;241;1046;-70
2021/08/11 06:34:46;;;;;;;;;;;24.40;53.90;;;;;;492007;241;1094;-69
2021/08/11 06:36:48;;;;;;;;;;;24.10;53.90;;;;;;492091;241;1295;-69
2021/08/11 06:38:49;;;;;;;;;;;24.40;53.70;;;;;;491956;241;1259;-69
2021/08/11 06:40:50;;;;;;;;;;;24.40;53.60;;;;;;491916;241;1329;-70
2021/08/11 06:42:52;;;;;;;;;;;24.30;53.50;;;;;;491887;241;1136;-69
2021/08/11 06:44:53;;;;;;;;;;;24.40;53.70;;;;;;492056;241;2139;-69
2021/08/11 06:46:54;;;;;;;;;;;24.40;53.70;;;;;;491911;241;1318;-69
2021/08/11 06:48:55;;;;;;;;;;;24.30;53.80;;;;;;491999;241;1038;-69
2021/08/11 06:50:57;;;;;;;;;;;24.60;53.30;;;;;;491877;241;1132;-69
2021/08/11 06:52:58;;;;;;;;;;;24.60;53.50;;;;;;492015;241;1173;-70
2021/08/11 06:54:59;;;;;;;;;;;24.40;53.50;;;;;;491879;241;1095;-69
2021/08/11 06:57:01;;;;;;;;;;;24.40;53.50;;;;;;491789;241;1253;-69
2021/08/11 06:59:02;;;;;;;;;;;24.40;53.60;;;;;;491778;241;1157;-69
2021/08/11 07:01:03;;;;;;;;;;;24.30;53.60;;;;;;491758;241;1112;-69
2021/08/11 07:03:05;;;;;;;;;;;24.40;53.60;;;;;;491854;241;1101;-69
2021/08/11 07:05:06;;;;;;;;;;;24.40;53.70;;;;;;491787;241;2187;-69
2021/08/11 07:07:08;;;;;;;;;;;24.50;53.30;;;;;;491861;241;1275;-69
2021/08/11 07:09:09;;;;;;;;;;;24.30;53.50;;;;;;491793;241;1218;-69
2021/08/11 07:11:10;;;;;;;;;;;24.40;53.60;;;;;;491771;241;1096;-69
2021/08/11 07:13:11;;;;;;;;;;;24.30;54.10;;;;;;491854;241;1070;-69
2021/08/11 07:15:13;;;;;;;;;;;24.10;54.40;;;;;;491786;241;1068;-69
2021/08/11 07:17:14;;;;;;;;;;;24.20;54.30;;;;;;491834;241;1091;-69
2021/08/11 07:19:15;;;;;;;;;;;24.10;54.20;;;;;;491861;241;1102;-69
2021/08/11 07:21:17;;;;;;;;;;;24.20;54.00;;;;;;491857;241;1095;-69
2021/08/11 07:23:18;;;;;;;;;;;24.30;54.00;;;;;;491669;241;1359;-69
2021/08/11 07:25:19;;;;;;;;;;;24.20;54.40;;;;;;491765;241;2191;-69
2021/08/11 07:27:21;;;;;;;;;;;24.10;54.20;;;;;;491863;241;1044;-69
2021/08/11 07:29:22;;;;;;;;;;;24.30;54.10;;;;;;491663;241;1024;-70
2021/08/11 07:31:23;;;;;;;;;;;24.30;54.10;;;;;;491678;241;1076;-69
2021/08/11 07:33:25;;;;;;;;;;;24.30;54.40;;;;;;491755;242;1069;-70
2021/08/11 07:35:26;;;;;;;;;;;24.20;54.20;;;;;;491738;241;1083;-70
2021/08/11 07:37:27;;;;;;;;;;;24.10;54.80;;;;;;491648;241;1261;-70
2021/08/11 07:39:28;;;;;;;;;;;24.10;54.50;;;;;;491835;241;1198;-70
2021/08/11 07:41:30;;;;;;;;;;;24.20;54.60;;;;;;491740;241;1325;-70
2021/08/11 07:43:31;;;;;;;;;;;24.30;54.00;;;;;;491749;241;1322;-70
2021/08/11 07:45:33;;;;;;;;;;;24.20;54.20;;;;;;491710;241;2140;-70
2021/08/11 07:47:34;;;;;;;;;;;24.30;54.10;;;;;;491501;241;1171;-69
2021/08/11 07:49:35;;;;;;;;;;;24.10;54.80;;;;;;491572;241;1080;-70
2021/08/11 07:51:37;;;;;;;;;;;24.20;54.30;;;;;;491515;241;1221;-70
2021/08/11 07:53:38;;;;;;;;;;;24.30;54.30;;;;;;491583;241;1157;-70
2021/08/11 07:55:39;;;;;;;;;;;24.40;54.30;;;;;;491890;241;1520;-70
2021/08/11 07:57:41;;;;;;;;;;;24.40;54.00;;;;;;491886;241;1227;-70
2021/08/11 07:59:42;;;;;;;;;;;24.20;54.10;;;;;;491786;241;1060;-70
2021/08/11 08:01:43;;;;;;;;;;;24.30;54.30;;;;;;491771;241;1249;-69
2021/08/11 08:03:45;;;;;;;;;;;24.50;53.80;;;;;;492237;241;1007;-70
2021/08/11 08:05:46;;;;;;;;;;;24.20;54.60;;;;;;491802;241;2192;-69
2021/08/11 08:07:48;;;;;;;;;;;24.40;54.20;;;;;;491784;241;1179;-69
2021/08/11 08:09:49;;;;;;;;;;;24.20;54.70;;;;;;491811;241;1101;-69
2021/08/11 08:11:50;;;;;;;;;;;24.30;54.20;;;;;;491634;241;1258;-69
2021/08/11 08:13:52;;;;;;;;;;;24.30;54.20;;;;;;491874;241;1145;-69
2021/08/11 08:15:54;;;;;;;;;;;24.50;54.00;;;;;;491766;241;1203;-70
2021/08/11 08:17:54;;;;;;;;;;;24.30;54.30;;;;;;492604;241;1251;-69
2021/08/11 08:19:55;;;;;;;;;;;24.60;53.80;;;;;;492325;241;841;-69
2021/08/11 08:21:57;;;;;;;;;;;24.80;53.00;;;;;;492306;241;1052;-69
2021/08/11 08:23:58;;;;;;;;;;;24.60;53.40;;;;;;492383;241;1416;-70
2021/08/11 08:25:59;;;;;;;;;;;24.40;54.10;;;;;;492400;241;2180;-70
2021/08/11 08:28:01;;;;;;;;;;;24.50;53.80;;;;;;492202;241;1088;-69
2021/08/11 08:30:02;;;;;;;;;;;24.60;53.70;;;;;;491721;241;759;-69
2021/08/11 08:32:03;;;;;;;;;;;24.50;53.70;;;;;;491583;241;1098;-69
2021/08/11 08:34:05;;;;;;;;;;;24.60;53.40;;;;;;492228;241;735;-69
2021/08/11 08:36:06;;;;;;;;;;;24.60;53.70;;;;;;492311;237;1488;-70
2021/08/11 08:38:07;;;;;;;;;;;24.60;53.50;;;;;;492307;241;1360;-70
2021/08/11 08:40:09;;;;;;;;;;;24.80;53.10;;;;;;491886;241;1050;-69
2021/08/11 08:42:10;;;;;;;;;;;24.70;53.40;;;;;;491967;241;1064;-69
2021/08/11 08:44:13;;;;;;;;;;;24.60;53.40;;;;;;492328;241;774;-69
2021/08/11 08:46:15;;;;;;;;;;;24.70;53.30;;;;;;491691;238;2195;-69
2021/08/11 08:48:14;;;;;;;;;;;24.60;53.70;;;;;;491626;242;1295;-69
2021/08/11 08:50:15;;;;;;;;;;;24.50;53.60;;;;;;492309;241;818;-69
2021/08/11 08:52:17;;;;;;;;;;;24.60;53.50;;;;;;491776;241;1141;-69
2021/08/11 08:54:18;;;;;;;;;;;24.80;53.40;;;;;;492143;241;1085;-70
2021/08/11 08:56:19;;;;;;;;;;;24.50;53.60;;;;;;491762;241;1350;-70
2021/08/11 08:58:21;;;;;;;;;;;24.60;53.60;;;;;;491809;241;1264;-69
2021/08/11 09:00:23;;;;;;;;;;;24.70;53.60;;;;;;492276;241;1319;-69
2021/08/11 09:02:24;;;;;;;;;;;24.60;53.60;;;;;;491809;242;1311;-69
2021/08/11 09:04:25;;;;;;;;;;;24.70;53.40;;;;;;492359;241;850;-69
2021/08/11 09:06:26;;;;;;;;;;;24.80;53.50;;;;;;491755;241;2187;-69
2021/08/11 09:08:28;;;;;;;;;;;24.30;54.10;;;;;;491838;241;762;-69
2021/08/11 09:10:29;;;;;;;;;;;24.50;53.90;;;;;;491820;241;1469;-69
2021/08/11 09:12:30;;;;;;;;;;;24.50;53.60;;;;;;491947;241;995;-69
2021/08/11 09:14:32;;;;;;;;;;;24.50;53.70;;;;;;492217;241;763;-69
2021/08/11 09:16:33;;;;;;;;;;;24.20;53.90;;;;;;492147;241;1151;-69
2021/08/11 09:18:34;;;;;;;;;;;24.20;54.50;;;;;;491849;241;851;-69
2021/08/11 09:20:36;;;;;;;;;;;23.80;55.00;;;;;;491917;241;1418;-69
2021/08/11 09:22:37;;;;;;;;;;;23.80;54.90;;;;;;491695;241;1120;-70
2021/08/11 09:24:38;;;;;;;;;;;23.70;55.50;;;;;;491477;241;1172;-69
2021/08/11 09:26:39;;;;;;;;;;;23.70;55.40;;;;;;491531;241;2191;-69
2021/08/11 09:28:41;;;;;;;;;;;23.50;55.30;;;;;;491693;241;1276;-70
2021/08/11 09:30:42;;;;;;;;;;;23.50;55.60;;;;;;491682;241;1077;-69
2021/08/11 09:32:43;;;;;;;;;;;23.40;55.70;;;;;;491729;241;1271;-69
2021/08/11 09:34:45;;;;;;;;;;;23.60;55.30;;;;;;491741;241;1147;-69
2021/08/11 09:36:49;;;;;;;;;;;23.30;56.20;;;;;;491603;241;1199;-69
2021/08/11 09:38:47;;;;;;;;;;;23.40;55.50;;;;;;491551;242;1287;-69
2021/08/11 09:40:49;;;;;;;;;;;23.40;55.70;;;;;;491719;241;1153;-69
2021/08/11 09:42:50;;;;;;;;;;;23.50;55.50;;;;;;491850;241;1156;-69
2021/08/11 09:44:52;;;;;;;;;;;23.60;55.00;;;;;;491558;241;1034;-69
2021/08/11 09:46:53;;;;;;;;;;;23.60;54.80;;;;;;491930;241;2160;-69
2021/08/11 09:48:54;;;;;;;;;;;23.20;55.80;;;;;;491606;241;1175;-69
2021/08/11 09:50:59;;;;;;;;;;;23.30;55.90;;;;;;491744;241;1192;-69
2021/08/11 09:52:57;;;;;;;;;;;23.30;55.50;;;;;;492142;241;1284;-69
2021/08/11 09:54:59;;;;;;;;;;;23.20;55.70;;;;;;491632;241;1073;-69
2021/08/11 09:57:00;;;;;;;;;;;23.20;55.70;;;;;;491622;241;1386;-70
2021/08/11 09:59:02;;;;;;;;;;;23.50;55.50;;;;;;491661;241;1106;-69
2021/08/11 10:01:03;;;;;;;;;;;23.40;55.20;;;;;;491499;241;1199;-69
2021/08/11 10:03:04;;;;;;;;;;;23.50;55.30;;;;;;491992;241;1204;-69
2021/08/11 10:05:06;;;;;;;;;;;23.50;55.50;;;;;;491566;241;1165;-69
2021/08/11 10:07:07;;;;;;;;;;;23.40;55.10;;;;;;491702;241;2184;-69
2021/08/11 10:09:08;;;;;;;;;;;23.20;55.30;;;;;;491706;241;1123;-69
2021/08/11 10:11:10;;;;;;;;;;;23.40;55.30;;;;;;491571;241;1406;-69
2021/08/11 10:13:11;;;;;;;;;;;23.30;55.30;;;;;;492649;241;1202;-70
2021/08/11 10:15:12;;;;;;;;;;;23.30;55.30;;;;;;492490;241;1028;-70
2021/08/11 10:17:13;;;;;;;;;;;23.10;55.40;;;;;;491607;241;1104;-69
2021/08/11 10:19:15;;;;;;;;;;;23.10;55.80;;;;;;491491;241;1032;-69
2021/08/11 10:21:16;;;;;;;;;;;23.40;55.40;;;;;;491497;241;1107;-69
2021/08/11 10:23:18;;;;;;;;;;;23.30;55.40;;;;;;491779;241;1211;-70
2021/08/11 10:25:19;;;;;;;;;;;23.10;55.40;;;;;;491644;241;1146;-69
2021/08/11 10:27:20;;;;;;;;;;;23.30;54.80;;;;;;491568;241;2176;-70
2021/08/11 10:29:21;;;;;;;;;;;23.20;55.60;;;;;;491630;241;1083;-70
2021/08/11 10:31:23;;;;;;;;;;;22.90;55.90;;;;;;491568;241;1093;-69
2021/08/11 10:33:24;;;;;;;;;;;23.10;55.80;;;;;;491558;241;1137;-69
2021/08/11 10:35:25;;;;;;;;;;;23.20;55.80;;;;;;491600;241;978;-69
2021/08/11 10:37:27;;;;;;;;;;;23.10;55.50;;;;;;491697;241;1154;-69
2021/08/11 10:39:28;;;;;;;;;;;23.20;55.60;;;;;;491687;241;1077;-69
2021/08/11 10:41:30;;;;;;;;;;;23.40;55.00;;;;;;491646;241;1082;-69
2021/08/11 10:43:31;;;;;;;;;;;23.40;55.00;;;;;;491685;241;1275;-69
2021/08/11 10:45:32;;;;;;;;;;;23.40;54.70;;;;;;491710;241;1079;-70
2021/08/11 10:47:35;;;;;;;;;;;23.10;55.40;;;;;;491510;241;2182;-69
2021/08/11 10:49:35;;;;;;;;;;;23.10;55.40;;;;;;491685;242;1265;-69
2021/08/11 10:51:36;;;;;;;;;;;23.10;55.40;;;;;;491563;241;1283;-70
2021/08/11 10:53:38;;;;;;;;;;;22.80;55.80;;;;;;491466;241;1103;-69
2021/08/11 10:55:39;;;;;;;;;;;23.00;55.60;;;;;;491530;241;1161;-69
2021/08/11 10:57:41;;;;;;;;;;;23.10;55.50;;;;;;491812;241;1165;-70
2021/08/11 10:59:42;;;;;;;;;;;23.30;55.30;;;;;;491934;241;1129;-70
2021/08/11 11:01:43;;;;;;;;;;;23.00;55.20;;;;;;491682;238;1335;-70
2021/08/11 11:03:44;;;;;;;;;;;23.10;55.70;;;;;;491813;241;1092;-69
2021/08/11 11:05:46;;;;;;;;;;;23.00;55.50;;;;;;491622;241;1159;-69
2021/08/11 11:07:47;;;;;;;;;;;23.10;55.60;;;;;;491673;241;2186;-69
2021/08/11 11:09:48;;;;;;;;;;;23.20;55.40;;;;;;491613;241;1166;-70
2021/08/11 11:11:50;;;;;;;;;;;23.10;55.60;;;;;;491484;241;1089;-69
2021/08/11 11:13:51;;;;;;;;;;;23.20;55.20;;;;;;491788;241;1150;-69
2021/08/11 11:15:52;;;;;;;;;;;23.30;55.20;;;;;;491568;241;1124;-69
2021/08/11 11:17:54;;;;;;;;;;;23.40;54.90;;;;;;491679;241;1067;-69
2021/08/11 11:19:55;;;;;;;;;;;23.60;54.40;;;;;;491113;242;1155;-70
2021/08/11 11:21:56;;;;;;;;;;;23.50;54.60;;;;;;491578;241;1140;-69
2021/08/11 11:26:28;;;;;;;;;;;23.30;54.90;;;;;;488093;237;2546;-69
2021/08/11 11:28:29;;;;;;;;;;;23.40;54.70;;;;;;485599;244;1086;-69
2021/08/11 11:30:30;;;;;;;;;;;23.20;55.20;;;;;;481900;247;1116;-69
2021/08/11 11:32:32;;;;;;;;;;;23.40;55.10;;;;;;482808;246;1136;-69
2021/08/11 11:34:33;;;;;;;;;;;23.70;54.30;;;;;;485916;245;677;-69
2021/08/11 11:36:34;;;;;;;;;;;23.20;55.20;;;;;;483298;246;1158;-69
2021/08/11 11:38:36;;;;;;;;;;;23.40;54.70;;;;;;483179;246;1122;-69
2021/08/11 11:40:37;;;;;;;;;;;23.50;54.70;;;;;;482817;246;1299;-70
2021/08/11 11:42:38;;;;;;;;;;;23.20;55.20;;;;;;485786;245;1247;-69
2021/08/11 11:44:40;;;;;;;;;;;23.10;55.20;;;;;;481960;247;1092;-69
2021/08/11 11:46:41;;;;;;;;;;;23.60;54.60;;;;;;486984;244;2205;-69
2021/08/11 11:48:42;;;;;;;;;;;23.50;54.80;;;;;;487184;243;1083;-69
2021/08/11 11:50:44;;;;;;;;;;;23.40;54.60;;;;;;487010;243;1457;-70
2021/08/11 11:52:45;;;;;;;;;;;23.50;54.60;;;;;;487145;243;1036;-69
2021/08/11 11:54:46;;;;;;;;;;;23.30;54.90;;;;;;487038;244;1100;-69
2021/08/11 11:56:48;;;;;;;;;;;23.40;54.50;;;;;;486912;243;1255;-69
2021/08/11 11:58:49;;;;;;;;;;;23.40;54.50;;;;;;487013;243;1285;-70